»·PEaware :: N648CR KSJC-KMMH

N648CR :: KSJC-KMMH

FLIGHT INFORMATION

Flight Status: Arrived
Operator: Privately registered:
United States
More flights under this callsign
Pilot: James D. (19799)
Aircraft: Unknown
(SF50)
More flights by this aircraft type
Origin: KSJC Mineta San Jose Intl
United States
Destination: KMMH Mammoth Yosemite
United States
More flights between these airports :: More routes between these airports
Route: +
File this flight plan on PilotEdge
Remarks:
Altitude:
(Current/Filed)
17,500ft
Speed:
(Current/Filed)
0kts
Departed: 18-Aug-19 03:00 PM
Arrived: 18-Aug-19 03:38 PM
Distance/Time
Traveled:
1nm/0:38
Distance/Time
To Go:
Arrived

Flight Plot

Page will automatically refresh every two minutes.

Flight plan parsing failed; only flown route is shown


Map Options




Map Legend


Flown Route
Filed Route
Departure Airport
Arrival Airport
Navaid (VOR, NDB)
Fix

Horizontal Profiles

Position Reports

Time Latitude Longitude Heading Altitude Ground
Speed
18-Aug-19 14:44 37.352826 -121.921944 49 60ft 0kts
18-Aug-19 14:45 37.352826 -121.921944 49 60ft 0kts
18-Aug-19 14:46 37.353216 -121.921540 354 60ft 4kts
18-Aug-19 14:47 37.355023 -121.923448 318 57ft 13kts
18-Aug-19 14:48 37.358219 -121.926943 319 54ft 20kts
18-Aug-19 14:49 37.363354 -121.932623 316 47ft 29kts
18-Aug-19 14:50 37.366364 -121.935899 321 44ft 18kts
18-Aug-19 14:51 37.370412 -121.940339 318 40ft 11kts
18-Aug-19 14:52 37.371567 -121.941584 314 40ft 0kts
18-Aug-19 14:53 37.372170 -121.941821 43 40ft 0kts
18-Aug-19 14:54 37.372170 -121.941821 43 40ft 0kts
18-Aug-19 14:55 37.372170 -121.941821 43 40ft 0kts
18-Aug-19 14:56 37.372170 -121.941821 43 40ft 0kts
18-Aug-19 14:57 37.372170 -121.941821 43 40ft 0kts
18-Aug-19 14:58 37.372528 -121.940707 136 40ft 9kts
18-Aug-19 14:59 37.353392 -121.921233 148 674ft 149kts
18-Aug-19 15:00 37.364477 -121.867496 64 2832ft 211kts
18-Aug-19 15:01 37.376083 -121.790886 86 4868ft 237kts
18-Aug-19 15:02 37.384255 -121.706167 86 6878ft 249kts
18-Aug-19 15:03 37.392559 -121.619360 87 8895ft 249kts
18-Aug-19 15:04 37.400693 -121.533657 87 10881ft 245kts
18-Aug-19 15:05 37.408672 -121.448782 88 12652ft 249kts
18-Aug-19 15:06 37.416958 -121.360084 88 14061ft 260kts
18-Aug-19 15:07 37.425302 -121.269744 88 15377ft 268kts
18-Aug-19 15:08 37.434443 -121.169876 88 15540ft 306kts
18-Aug-19 15:09 37.444236 -121.062467 87 15535ft 305kts
18-Aug-19 15:10 37.453699 -120.957255 87 15536ft 300kts
18-Aug-19 15:11 37.462967 -120.853226 87 15539ft 297kts
18-Aug-19 15:12 37.472052 -120.750177 87 15542ft 296kts
18-Aug-19 15:13 37.481046 -120.647131 87 15544ft 296kts
18-Aug-19 15:14 37.489970 -120.543832 87 15545ft 296kts
18-Aug-19 15:15 37.498748 -120.440723 87 15545ft 296kts
18-Aug-19 15:16 37.511345 -120.338011 85 15544ft 297kts
18-Aug-19 15:17 37.523804 -120.235215 85 15508ft 298kts
18-Aug-19 15:18 37.536576 -120.128898 84 15234ft 301kts
18-Aug-19 15:19 37.548970 -120.024853 85 15234ft 298kts
18-Aug-19 15:20 37.561194 -119.921451 85 15234ft 297kts
18-Aug-19 15:21 37.573250 -119.818701 85 15234ft 296kts
18-Aug-19 15:22 37.585322 -119.714989 85 15266ft 295kts
18-Aug-19 15:23 37.597097 -119.613031 85 15381ft 293kts
18-Aug-19 15:24 37.608754 -119.511304 85 15502ft 292kts
18-Aug-19 15:25 37.620373 -119.409315 85 15510ft 295kts
18-Aug-19 15:26 37.632072 -119.305614 85 15095ft 301kts
18-Aug-19 15:27 37.643801 -119.200791 85 14601ft 302kts
18-Aug-19 15:28 37.658464 -119.096435 71 14102ft 306kts
18-Aug-19 15:29 37.690015 -118.998576 70 13059ft 291kts
18-Aug-19 15:30 37.682414 -118.908939 106 12250ft 257kts
18-Aug-19 15:31 37.664247 -118.820540 106 10252ft 260kts
18-Aug-19 15:32 37.647795 -118.734031 106 8601ft 242kts
18-Aug-19 15:33 37.618707 -118.706171 236 8304ft 143kts
18-Aug-19 15:34 37.604342 -118.750009 256 7904ft 126kts
18-Aug-19 15:35 37.611076 -118.791720 287 7446ft 121kts
18-Aug-19 15:36 37.620506 -118.825900 286 7093ft 84kts
18-Aug-19 15:37 37.624113 -118.836887 17 7100ft 5kts
18-Aug-19 15:38 37.624977 -118.839006 287 7107ft 15kts
18-Aug-19 15:39 37.626278 -118.842060 310 7115ft 5kts
18-Aug-19 15:40 37.627140 -118.843883 311 7119ft 4kts
18-Aug-19 15:41 37.627694 -118.844714 289 7121ft 1kts
18-Aug-19 15:42 37.627701 -118.844739 289 7121ft 0kts
18-Aug-19 15:43 37.627701 -118.844739 289 7121ft 0kts
18-Aug-19 15:44 37.355421 -121.923875 318 57ft 13kts
18-Aug-19 15:45 37.358897 -121.927685 318 53ft 21kts
18-Aug-19 15:46 37.364153 -121.933501 320 45ft 29kts
18-Aug-19 15:47 37.366736 -121.936297 316 44ft 22kts
18-Aug-19 15:48 37.370511 -121.940440 321 40ft 11kts
18-Aug-19 15:49 37.371567 -121.941584 314 40ft 0kts
18-Aug-19 15:50 37.372170 -121.941821 43 40ft 0kts
18-Aug-19 15:51 37.372170 -121.941821 43 40ft 0kts
18-Aug-19 15:52 37.372170 -121.941821 43 40ft 0kts

Navigation Log

Ident Type
Flight plan parsing failed, navigation log unavailable